LHBC 260845Z 03012KT 9999 FEW043 SCT200 10/M01 Q1020        

LHBP 261100Z 33010KT 290V360 CAVOK 10/M04 Q1021 NOSIG        

LHDC 261045Z AUTO 01010G20KT 300V050 CAVOK 11/M02 Q1020 NOSIG        

LHKE 261045Z 35006KT 290V060 CAVOK 10/M05 Q1021 NOSIG RMK BLU        

LHPA 261045Z 34017KT 9999 FEW043 BKN053 09/M02 Q1024 NOSIG RMK BLU        

LHPP 261045Z 34012KT 9999 SCT046 SCT200 09/M03 Q1023        

LHPR 261045Z 34018KT 300V360 9999 BKN046 09/M02 Q1023        

LHSM 261045Z 34019KT 9999 BKN046 09/ Q1024        

LHSN 261045Z 03006KT 360V070 CAVOK 10/M05 Q1021 NOSIG RMK BLU        

LHUD 261045Z 35008KT CAVOK 12/M04 Q1021